X  Stänga Metar väderdata för luftfart     KSWO Stillwater Regional Airport
Temperatur
73°F Temperatur
70°F Daggpunkt
89% Fuktighet



Vind
16 MPH
26 KM/T
7 M/S
14 KTS



20°
NNÖ
Nuvarande omständigheter

Delvis molnigt Delvis molnigt
Tryck 1015.22 (hPa) - 29.98 (inHg)
Synlighet 10 (mil) - 16.1 (km)
Flygplats
Flygplatskod KSWO

Plats: Stillwater Regional Airport
Distans: 4 (mi)

Metar:
KSWO 170753Z AUTO 02014KT 10SM FEW015 BKN090 23/21 A2998 RMK AO2 RAB0654E12 SLP134 P0003 T02280206

Tid: 08-17-2022 2:53 am CDT